createdAt,value
2022-11-29T00:01:35.896Z,100432.89
2022-11-29T00:03:40.286Z,100430.59
2022-11-29T00:05:44.675Z,100431.67
2022-11-29T00:07:49.188Z,100432.28
2022-11-29T00:09:53.734Z,100433.41
2022-11-29T00:11:58.117Z,100434.33
2022-11-29T00:14:02.466Z,100429.47
2022-11-29T00:16:06.807Z,100430.97
2022-11-29T00:18:11.215Z,100428.92
2022-11-29T00:20:15.551Z,100431.74
2022-11-29T00:22:19.918Z,100433.07
2022-11-29T00:24:24.250Z,100430.83
2022-11-29T00:26:28.597Z,100436.03
2022-11-29T00:28:32.961Z,100428.75
2022-11-29T00:30:37.615Z,100428.58
2022-11-29T00:32:42.075Z,100428.78
2022-11-29T00:34:46.854Z,100427.25
2022-11-29T00:36:51.240Z,100430.05
2022-11-29T00:38:55.613Z,100434.44
2022-11-29T00:40:59.990Z,100435.15
2022-11-29T00:43:04.340Z,100434.84
2022-11-29T00:45:08.709Z,100435.36
2022-11-29T00:47:13.103Z,100429.16
2022-11-29T00:49:17.469Z,100428.65
2022-11-29T00:51:21.933Z,100426.88
2022-11-29T00:53:26.315Z,100424.94
2022-11-29T00:55:30.670Z,100425.59
2022-11-29T00:57:35.036Z,100418.68
2022-11-29T00:59:39.371Z,100417.8
2022-11-29T01:01:43.815Z,100422.63
2022-11-29T01:03:48.389Z,100417.42
2022-11-29T01:05:52.752Z,100419.02
2022-11-29T01:07:57.305Z,100420.34
2022-11-29T01:10:01.804Z,100420.41
2022-11-29T01:12:06.149Z,100423.17
2022-11-29T01:14:10.505Z,100421.33
2022-11-29T01:16:15.004Z,100426.61
2022-11-29T01:18:19.647Z,100430.08
2022-11-29T01:20:23.974Z,100429.2
2022-11-29T01:22:28.332Z,100430.86
2022-11-29T01:24:32.689Z,100429.67
2022-11-29T01:26:37.049Z,100425.38
2022-11-29T01:28:56.178Z,100425.18
2022-11-29T01:31:00.796Z,100425.04
2022-11-29T01:33:05.283Z,100425
2022-11-29T01:35:09.638Z,100422.38
2022-11-29T01:37:13.974Z,100426.02
2022-11-29T01:39:18.323Z,100423.3
2022-11-29T01:41:22.663Z,100423.61
2022-11-29T01:43:27.057Z,100422.55
2022-11-29T01:45:31.416Z,100425.55
2022-11-29T01:47:35.753Z,100425.95
2022-11-29T01:49:40.092Z,100426.7
2022-11-29T01:51:44.457Z,100425.38
2022-11-29T01:53:48.803Z,100428.3
2022-11-29T01:55:53.434Z,100424.08
2022-11-29T01:57:57.955Z,100426.27
2022-11-29T02:00:02.319Z,100426.56
2022-11-29T02:02:06.828Z,100426.91
2022-11-29T02:04:11.306Z,100418.36
2022-11-29T02:06:15.661Z,100419.34
2022-11-29T02:08:20.022Z,100419
2022-11-29T02:10:24.373Z,100415.64
2022-11-29T02:12:28.715Z,100421.11
2022-11-29T02:14:33.092Z,100421.52
2022-11-29T02:16:37.435Z,100419.55
2022-11-29T02:18:41.804Z,100419.45
2022-11-29T02:20:46.164Z,100419.08
2022-11-29T02:22:50.513Z,100422.61
2022-11-29T02:24:54.865Z,100422.38
2022-11-29T02:26:59.218Z,100426.22
2022-11-29T02:29:03.582Z,100426.19
2022-11-29T02:31:08.231Z,100424.83
2022-11-29T02:33:12.665Z,100426.36
2022-11-29T02:35:17.033Z,100427.27
2022-11-29T02:37:21.368Z,100431.7
2022-11-29T02:39:25.757Z,100432.61
2022-11-29T02:41:30.201Z,100434.42
2022-11-29T02:43:34.547Z,100435.64
2022-11-29T02:45:38.929Z,100438.53
2022-11-29T02:47:43.306Z,100438.5
2022-11-29T02:49:47.662Z,100435.98
2022-11-29T02:51:52.098Z,100443.95
2022-11-29T02:53:56.529Z,100442.41
2022-11-29T02:56:00.869Z,100446.23
2022-11-29T02:58:05.239Z,100448.34
2022-11-29T03:00:09.583Z,100445.34
2022-11-29T03:02:14.257Z,100447.35
2022-11-29T03:04:18.651Z,100446.3
2022-11-29T03:06:22.972Z,100448.03
2022-11-29T03:08:27.355Z,100453.11
2022-11-29T03:10:31.697Z,100455.38
2022-11-29T03:12:36.080Z,100457.8
2022-11-29T03:14:40.574Z,100456.71
2022-11-29T03:16:45.307Z,100455.45
2022-11-29T03:18:49.685Z,100459.37
2022-11-29T03:20:54.047Z,100461.75
2022-11-29T03:22:58.403Z,100459.13
2022-11-29T03:25:02.740Z,100461.61
2022-11-29T03:27:07.199Z,100463.08
2022-11-29T03:29:11.536Z,100462.2
2022-11-29T03:31:16.009Z,100458.21
2022-11-29T03:33:20.499Z,100456.2
2022-11-29T03:35:24.832Z,100463.8
2022-11-29T03:37:29.171Z,100461.52
2022-11-29T03:39:33.545Z,100466.35
2022-11-29T03:41:37.913Z,100464.72
2022-11-29T03:43:42.294Z,100465.23
2022-11-29T03:45:46.656Z,100464.34
2022-11-29T03:47:51.024Z,100461.38
2022-11-29T03:49:55.502Z,100461.76
2022-11-29T03:51:59.839Z,100462.06
2022-11-29T03:54:04.192Z,100460.94
2022-11-29T03:56:08.562Z,100462.3
2022-11-29T03:58:12.890Z,100462.51
2022-11-29T04:00:17.291Z,100469.75
2022-11-29T04:02:21.782Z,100467.2
2022-11-29T04:04:26.234Z,100466.35
2022-11-29T04:06:30.590Z,100464.52
2022-11-29T04:08:34.948Z,100463.39
2022-11-29T04:10:39.585Z,100464.17
2022-11-29T04:12:44.218Z,100473.64
2022-11-29T04:14:48.593Z,100470.91
2022-11-29T04:16:52.957Z,100467.68
2022-11-29T04:18:57.325Z,100471.05
2022-11-29T04:21:01.680Z,100473.84
2022-11-29T04:23:06.049Z,100471.66
2022-11-29T04:25:10.409Z,100481.02
2022-11-29T04:27:14.794Z,100481.27
2022-11-29T04:29:19.229Z,100485.45
2022-11-29T04:31:23.708Z,100491.47
2022-11-29T04:33:28.201Z,100486.7
2022-11-29T04:35:32.581Z,100487.86
2022-11-29T04:37:37.012Z,100488.34
2022-11-29T04:39:41.373Z,100487.35
2022-11-29T04:41:45.701Z,100490.42
2022-11-29T04:43:50.062Z,100485.41
2022-11-29T04:45:54.424Z,100492.59
2022-11-29T04:47:58.818Z,100491.06
2022-11-29T04:50:03.158Z,100490.96
2022-11-29T04:52:07.507Z,100490.21
2022-11-29T04:54:11.873Z,100499.34
2022-11-29T04:56:16.227Z,100498.14
2022-11-29T04:58:20.578Z,100496.2
2022-11-29T05:00:24.923Z,100496.45
2022-11-29T05:02:29.463Z,100499.09
2022-11-29T05:04:33.930Z,100501.65
2022-11-29T05:06:38.320Z,100500.25
2022-11-29T05:08:42.645Z,100503.96
2022-11-29T05:10:47.008Z,100502.16
2022-11-29T05:12:51.359Z,100501.55
2022-11-29T05:14:55.691Z,100503.25
2022-11-29T05:17:00.099Z,100512.13
2022-11-29T05:19:04.461Z,100508.7
2022-11-29T05:21:08.836Z,100509.23
2022-11-29T05:23:13.187Z,100506.58
2022-11-29T05:25:17.605Z,100509.1
2022-11-29T05:27:21.986Z,100510.63
2022-11-29T05:29:26.336Z,100513.39
2022-11-29T05:31:30.860Z,100514.78
2022-11-29T05:33:35.424Z,100510.6
2022-11-29T05:35:39.792Z,100514.86
2022-11-29T05:37:44.170Z,100514.75
2022-11-29T05:39:48.548Z,100518.23
2022-11-29T05:41:52.896Z,100517.23
2022-11-29T05:43:57.260Z,100522.07
2022-11-29T05:46:01.883Z,100519.89
2022-11-29T05:48:06.356Z,100523.47
2022-11-29T05:50:10.759Z,100523.77
2022-11-29T05:52:15.126Z,100525.11
2022-11-29T05:54:19.528Z,100526.64
2022-11-29T05:56:23.889Z,100530.31
2022-11-29T05:58:31.713Z,100532.7
2022-11-29T06:00:36.131Z,100538.17
2022-11-29T06:02:40.570Z,100534.36
2022-11-29T06:04:45.506Z,100537.3
2022-11-29T06:06:50.503Z,100539.98
2022-11-29T06:08:54.896Z,100546.78
2022-11-29T06:10:59.248Z,100547.7
2022-11-29T06:13:03.629Z,100546.14
2022-11-29T06:15:08.001Z,100547.64
2022-11-29T06:17:12.346Z,100550.16
2022-11-29T06:19:16.727Z,100551.14
2022-11-29T06:21:21.077Z,100554.17
2022-11-29T06:23:25.462Z,100556.22
2022-11-29T06:25:29.782Z,100557.88
2022-11-29T06:27:34.126Z,100560.84
2022-11-29T06:29:38.504Z,100563.2
2022-11-29T06:31:43.110Z,100567.48
2022-11-29T06:33:47.629Z,100570.31
2022-11-29T06:35:52.042Z,100568.88
2022-11-29T06:37:56.402Z,100572.22
2022-11-29T06:40:00.751Z,100574.84
2022-11-29T06:42:05.123Z,100576.3
2022-11-29T06:44:09.495Z,100576.13
2022-11-29T06:46:13.998Z,100575.38
2022-11-29T06:48:18.452Z,100576.23
2022-11-29T06:50:22.850Z,100580.11
2022-11-29T06:52:27.211Z,100585.42
2022-11-29T06:54:31.569Z,100586.17
2022-11-29T06:56:35.967Z,100582.91
2022-11-29T06:58:42.447Z,100579.58
2022-11-29T07:00:46.928Z,100583.22
2022-11-29T07:02:51.388Z,100584
2022-11-29T07:04:55.764Z,100584.69
2022-11-29T07:07:00.148Z,100582.78
2022-11-29T07:09:04.523Z,100581.14
2022-11-29T07:11:08.849Z,100580.81
2022-11-29T07:13:13.205Z,100578.16
2022-11-29T07:15:17.550Z,100579.58
2022-11-29T07:17:21.932Z,100576.01
2022-11-29T07:19:26.303Z,100583.05
2022-11-29T07:21:30.655Z,100584.08
2022-11-29T07:23:35.034Z,100581.12
2022-11-29T07:25:39.357Z,100583.36
2022-11-29T07:27:43.712Z,100581.45
2022-11-29T07:29:48.088Z,100582
2022-11-29T07:31:52.610Z,100581.39
2022-11-29T07:33:57.110Z,100589.39
2022-11-29T07:36:01.501Z,100585.41
2022-11-29T07:38:05.836Z,100588.88
2022-11-29T07:40:10.201Z,100591.53
2022-11-29T07:42:14.559Z,100599.74
2022-11-29T07:44:18.932Z,100596.38
2022-11-29T07:46:23.463Z,100600.52
2022-11-29T07:48:27.908Z,100600.69
2022-11-29T07:50:32.307Z,100597.08
2022-11-29T07:52:36.648Z,100603.66
2022-11-29T07:54:41.012Z,100604.02
2022-11-29T07:56:45.416Z,100601.77
2022-11-29T07:58:50.055Z,100600.98
2022-11-29T08:00:54.687Z,100605.11
2022-11-29T08:02:59.123Z,100608
2022-11-29T08:05:03.511Z,100608.58
2022-11-29T08:07:07.931Z,100608.81
2022-11-29T08:09:12.364Z,100611.4
2022-11-29T08:11:16.698Z,100613.44
2022-11-29T08:13:21.078Z,100611.84
2022-11-29T08:15:25.442Z,100619.09
2022-11-29T08:17:29.860Z,100619.56
2022-11-29T08:19:34.209Z,100613.67
2022-11-29T08:21:38.592Z,100615.92
2022-11-29T08:23:43.001Z,100618.67
2022-11-29T08:25:47.487Z,100619.05
2022-11-29T08:27:51.884Z,100617.89
2022-11-29T08:29:56.215Z,100621.26
2022-11-29T08:32:00.664Z,100622.79
2022-11-29T08:34:05.240Z,100625.38
2022-11-29T08:36:09.590Z,100625.23
2022-11-29T08:38:13.976Z,100624.93
2022-11-29T08:40:18.359Z,100623.19
2022-11-29T08:42:22.739Z,100625.3
2022-11-29T08:44:27.164Z,100626.9
2022-11-29T08:46:31.525Z,100626.11
2022-11-29T08:48:35.929Z,100627.48
2022-11-29T08:50:40.298Z,100626.05
2022-11-29T08:52:44.706Z,100631.36
2022-11-29T08:54:49.450Z,100627.47
2022-11-29T08:57:40.401Z,100636.02
2022-11-29T08:59:45.652Z,100631.69
2022-11-29T09:01:50.147Z,100636.05
2022-11-29T09:03:54.578Z,100635.3
2022-11-29T09:05:58.964Z,100635.39
2022-11-29T09:08:03.416Z,100631.62
2022-11-29T09:10:07.791Z,100633.22
2022-11-29T09:12:12.151Z,100634.92
2022-11-29T09:14:16.534Z,100640.58
2022-11-29T09:16:21.132Z,100643.95
2022-11-29T09:18:25.548Z,100640
2022-11-29T09:20:29.962Z,100639.11
2022-11-29T09:22:34.320Z,100638.67
2022-11-29T09:24:38.691Z,100643.95
2022-11-29T09:26:43.054Z,100644.91
2022-11-29T09:28:47.421Z,100644.05
2022-11-29T09:30:51.827Z,100642.89
2022-11-29T09:32:56.195Z,100644.32
2022-11-29T09:35:00.564Z,100640.75
2022-11-29T09:37:04.932Z,100639.31
2022-11-29T09:39:09.287Z,100641.8
2022-11-29T09:41:13.647Z,100640.27
2022-11-29T09:43:18.036Z,100640.68
2022-11-29T09:45:22.417Z,100643.54
2022-11-29T09:47:26.852Z,100639.45
2022-11-29T09:49:31.243Z,100642.92
2022-11-29T09:51:44.149Z,100640.95
2022-11-29T09:53:48.835Z,100646.41
2022-11-29T09:55:53.234Z,100643.34
2022-11-29T09:57:57.616Z,100647.69
2022-11-29T10:00:02.016Z,100641.27
2022-11-29T10:02:06.508Z,100645.21
2022-11-29T10:04:10.960Z,100639.73
2022-11-29T10:06:15.317Z,100647.52
2022-11-29T10:08:19.693Z,100644.56
2022-11-29T10:10:24.163Z,100646.67
2022-11-29T10:12:28.538Z,100640.28
2022-11-29T10:14:32.949Z,100655.86
2022-11-29T10:16:37.443Z,100648.41
2022-11-29T10:18:41.901Z,100649.2
2022-11-29T10:20:50.210Z,100648.17
2022-11-29T10:22:54.633Z,100647.87
2022-11-29T10:24:59.055Z,100646.72
2022-11-29T10:27:03.659Z,100642.08
2022-11-29T10:29:08.033Z,100645.52
2022-11-29T10:31:12.522Z,100647.05
2022-11-29T10:33:17.051Z,100650.28
2022-11-29T10:35:21.398Z,100646.2
2022-11-29T10:37:25.779Z,100644.53
2022-11-29T10:39:30.142Z,100650.9
2022-11-29T10:41:34.598Z,100650.15
2022-11-29T10:43:38.992Z,100647.94
2022-11-29T10:45:43.626Z,100642.19
2022-11-29T10:47:48.137Z,100643.58
2022-11-29T10:49:52.533Z,100641.2
2022-11-29T10:51:56.930Z,100642.25
2022-11-29T10:54:01.307Z,100642.36
2022-11-29T10:56:05.658Z,100645.55
2022-11-29T10:58:10.062Z,100643.58
2022-11-29T11:00:14.419Z,100639.63
2022-11-29T11:02:18.874Z,100639.67
2022-11-29T11:04:23.353Z,100640.14
2022-11-29T11:06:27.731Z,100639.23
2022-11-29T11:08:32.149Z,100640.34
2022-11-29T11:10:36.506Z,100632.72
2022-11-29T11:12:40.915Z,100633.84
2022-11-29T11:14:46.166Z,100633.88
2022-11-29T11:16:51.299Z,100635.62
2022-11-29T11:18:55.840Z,100632.66
2022-11-29T11:21:00.218Z,100629.8
2022-11-29T11:23:04.583Z,100631.7
2022-11-29T11:25:08.960Z,100633.75
2022-11-29T11:27:13.310Z,100632.22
2022-11-29T11:29:17.702Z,100638.84
2022-11-29T11:31:22.236Z,100635.45
2022-11-29T11:33:26.715Z,100633.06
2022-11-29T11:35:31.107Z,100634.97
2022-11-29T11:37:35.442Z,100635.07
2022-11-29T11:39:39.846Z,100634.59
2022-11-29T11:41:44.182Z,100641.27
2022-11-29T11:43:48.570Z,100637.15
2022-11-29T11:45:53.047Z,100640.58
2022-11-29T11:47:57.522Z,100641.06
2022-11-29T11:50:01.920Z,100641.47
2022-11-29T11:52:06.252Z,100639.84
2022-11-29T11:54:10.621Z,100641.58
2022-11-29T11:56:14.998Z,100643.66
2022-11-29T11:58:19.362Z,100645.35
2022-11-29T12:01:04.908Z,100647.33
2022-11-29T12:03:10.295Z,100648.8
2022-11-29T12:05:14.846Z,100655.23
2022-11-29T12:07:19.221Z,100653.22
2022-11-29T12:09:37.286Z,100659.34
2022-11-29T12:11:41.676Z,100663.22
2022-11-29T12:13:46.023Z,100669.32
2022-11-29T12:15:50.606Z,100666.97
2022-11-29T12:17:55.073Z,100664.89
2022-11-29T12:19:59.397Z,100668.33
2022-11-29T12:22:03.760Z,100666.87
2022-11-29T12:24:08.137Z,100659.69
2022-11-29T12:26:34.755Z,100666.97
2022-11-29T12:29:01.883Z,100660.5
2022-11-29T12:31:06.393Z,100652.84
2022-11-29T12:33:10.916Z,100653.77
2022-11-29T12:35:19.894Z,100655.94
2022-11-29T12:37:24.290Z,100656.55
2022-11-29T12:39:28.671Z,100652.47
2022-11-29T12:41:33.090Z,100656.31
2022-11-29T12:43:37.437Z,100658.32
2022-11-29T12:45:41.808Z,100660.53
2022-11-29T12:47:52.186Z,100657.38
2022-11-29T12:49:56.894Z,100667.14
2022-11-29T12:52:01.300Z,100662.66
2022-11-29T12:54:05.697Z,100668.2
2022-11-29T12:56:10.085Z,100670.23
2022-11-29T12:58:14.488Z,100673.84
2022-11-29T13:00:18.847Z,100672.3
2022-11-29T13:02:23.394Z,100677.03
2022-11-29T13:04:27.909Z,100674
2022-11-29T13:06:32.327Z,100672.06
2022-11-29T13:08:36.693Z,100675.34
2022-11-29T13:10:41.125Z,100676.3
2022-11-29T13:12:45.543Z,100675.98
2022-11-29T13:14:49.898Z,100680.41
2022-11-29T13:16:54.469Z,100679.46
2022-11-29T13:18:58.915Z,100675.17
2022-11-29T13:21:03.309Z,100675.69
2022-11-29T13:23:07.711Z,100677.6
2022-11-29T13:25:12.044Z,100680.47
2022-11-29T13:27:16.455Z,100677.81
2022-11-29T13:29:20.873Z,100678.73
2022-11-29T13:31:25.366Z,100682.31
2022-11-29T13:33:29.913Z,100683.85
2022-11-29T13:35:34.331Z,100688.56
2022-11-29T13:37:38.659Z,100681.7
2022-11-29T13:39:43.082Z,100689.45
2022-11-29T13:41:47.499Z,100690.64
2022-11-29T13:43:51.890Z,100695.06
2022-11-29T13:45:56.266Z,100698.41
2022-11-29T13:48:00.647Z,100702.32
2022-11-29T13:50:05.069Z,100696.83
2022-11-29T13:52:09.528Z,100701.13
2022-11-29T13:54:13.909Z,100701.56
2022-11-29T13:56:18.323Z,100704.93
2022-11-29T13:58:22.753Z,100708.5
2022-11-29T14:00:27.096Z,100708.84
2022-11-29T14:02:31.868Z,100709.75
2022-11-29T14:04:36.434Z,100711.59
2022-11-29T14:06:40.854Z,100717.03
2022-11-29T14:09:19.782Z,100718.05
2022-11-29T14:11:24.414Z,100719.28
2022-11-29T14:13:28.803Z,100723.53
2022-11-29T14:15:33.178Z,100725.92
2022-11-29T14:17:37.529Z,100725.45
2022-11-29T14:19:41.914Z,100726.88
2022-11-29T14:21:46.279Z,100727.72
2022-11-29T14:23:50.667Z,100727.62
2022-11-29T14:25:55.032Z,100725.61
2022-11-29T14:27:59.475Z,100722.36
2022-11-29T14:30:03.906Z,100728.16
2022-11-29T14:32:08.375Z,100731.16
2022-11-29T14:34:12.818Z,100731.55
2022-11-29T14:36:17.208Z,100733.77
2022-11-29T14:38:23.996Z,100731.31
2022-11-29T14:40:34.577Z,100731.61
2022-11-29T14:42:38.956Z,100739.61
2022-11-29T14:44:43.645Z,100735.86
2022-11-29T14:46:48.956Z,100737.95
2022-11-29T14:48:53.474Z,100739.64
2022-11-29T14:50:57.870Z,100739.75
2022-11-29T14:53:02.259Z,100742.3
2022-11-29T14:55:06.661Z,100744.39
2022-11-29T14:57:11.150Z,100746.91
2022-11-29T14:59:15.541Z,100745.01
2022-11-29T15:01:20.183Z,100746.24
2022-11-29T15:03:24.937Z,100745.33
2022-11-29T15:05:29.424Z,100749.25
2022-11-29T15:07:33.923Z,100752.55
2022-11-29T15:09:38.348Z,100752.36
2022-11-29T15:11:42.724Z,100755.8
2022-11-29T15:13:47.206Z,100752.91
2022-11-29T15:15:51.788Z,100756.14
2022-11-29T15:17:56.285Z,100764.08
2022-11-29T15:20:00.641Z,100761.94
2022-11-29T15:22:05.223Z,100767.29
2022-11-29T15:24:09.624Z,100766.72
2022-11-29T15:26:14.019Z,100765.9
2022-11-29T15:28:18.405Z,100768.22
2022-11-29T15:30:22.774Z,100768.42
2022-11-29T15:32:27.197Z,100766.72
2022-11-29T15:34:31.893Z,100770
2022-11-29T15:36:36.386Z,100766.83
2022-11-29T15:38:40.788Z,100768.39
2022-11-29T15:40:45.161Z,100770.48
2022-11-29T15:42:49.588Z,100774.98
2022-11-29T15:44:53.949Z,100772.45
2022-11-29T15:46:58.382Z,100777.59
2022-11-29T15:49:02.801Z,100775.52
2022-11-29T15:51:07.175Z,100778.24
2022-11-29T15:53:11.560Z,100783.52
2022-11-29T15:55:15.934Z,100783.59
2022-11-29T15:57:20.388Z,100789.56
2022-11-29T15:59:24.767Z,100785.64
2022-11-29T16:01:29.269Z,100790.24
2022-11-29T16:03:33.795Z,100789.42
2022-11-29T16:05:38.182Z,100792.2
2022-11-29T16:07:42.639Z,100790.91
2022-11-29T16:09:47.089Z,100793.53
2022-11-29T16:11:51.467Z,100793.3
2022-11-29T16:13:55.880Z,100789.72
2022-11-29T16:16:00.332Z,100788.47
2022-11-29T16:18:04.769Z,100789.84
2022-11-29T16:20:09.174Z,100790.59
2022-11-29T16:22:13.757Z,100788.31
2022-11-29T16:24:18.136Z,100792.72
2022-11-29T16:26:22.479Z,100790.75
2022-11-29T16:28:26.827Z,100797.02
2022-11-29T16:30:31.205Z,100794.33
2022-11-29T16:32:35.722Z,100792.66
2022-11-29T16:34:40.065Z,100796.34
2022-11-29T16:36:44.424Z,100798.23
2022-11-29T16:38:48.763Z,100798.23
2022-11-29T16:40:53.185Z,100798.52
2022-11-29T16:42:57.551Z,100800.05
2022-11-29T16:45:02.044Z,100800.7
2022-11-29T16:47:06.466Z,100807.83
2022-11-29T16:49:10.825Z,100808.53
2022-11-29T16:51:15.203Z,100809.73
2022-11-29T16:53:19.573Z,100808.95
2022-11-29T16:55:23.995Z,100815.36
2022-11-29T16:57:28.371Z,100822.11
2022-11-29T16:59:32.742Z,100818.37
2022-11-29T17:01:37.306Z,100823
2022-11-29T17:03:41.845Z,100824.84
2022-11-29T17:05:46.225Z,100825.36
2022-11-29T17:07:50.760Z,100825.64
2022-11-29T17:09:55.279Z,100829.77
2022-11-29T17:11:59.710Z,100829.16
2022-11-29T17:14:04.144Z,100831.44
2022-11-29T17:16:08.686Z,100832.22
2022-11-29T17:18:13.182Z,100827.8
2022-11-29T17:20:17.546Z,100830.83
2022-11-29T17:22:21.920Z,100828.92
2022-11-29T17:24:26.275Z,100825.98
2022-11-29T17:26:30.654Z,100834.65
2022-11-29T17:28:35.024Z,100830.87
2022-11-29T17:30:39.393Z,100830.36
2022-11-29T17:32:43.769Z,100828.45
2022-11-29T17:34:48.745Z,100830.33
2022-11-29T17:36:53.135Z,100835.06
2022-11-29T17:38:57.577Z,100832.78
2022-11-29T17:41:01.920Z,100837.83
2022-11-29T17:43:06.561Z,100841.92
2022-11-29T17:45:10.953Z,100847.14
2022-11-29T17:47:15.351Z,100846.46
2022-11-29T17:49:19.837Z,100846.39
2022-11-29T17:51:53.216Z,100843.29
2022-11-29T17:53:57.982Z,100849.5
2022-11-29T17:56:02.329Z,100852.61
2022-11-29T17:58:06.676Z,100849.88
2022-11-29T18:00:11.090Z,100855.91
2022-11-29T18:02:15.577Z,100853.46
2022-11-29T18:04:20.022Z,100856.39
2022-11-29T18:06:24.365Z,100857.92
2022-11-29T18:08:28.785Z,100857.31
2022-11-29T18:10:33.178Z,100860.69
2022-11-29T18:12:37.573Z,100865.73
2022-11-29T18:14:41.959Z,100863.73
2022-11-29T18:16:46.951Z,100868.81
2022-11-29T18:18:51.551Z,100868.95
2022-11-29T18:20:55.975Z,100873.11
2022-11-29T18:23:08.068Z,100872.09
2022-11-29T18:25:39.958Z,100878.7
2022-11-29T18:27:44.571Z,100878.8
2022-11-29T18:29:49.854Z,100882.66
2022-11-29T18:31:54.838Z,100879.76
2022-11-29T18:33:59.218Z,100879.59
2022-11-29T18:36:03.607Z,100883.75
2022-11-29T18:38:16.690Z,100882.96
2022-11-29T18:40:21.243Z,100881.22
2022-11-29T18:42:25.722Z,100881.42
2022-11-29T18:44:30.129Z,100881.88
2022-11-29T18:46:34.588Z,100885.56
2022-11-29T18:48:38.969Z,100886.11
2022-11-29T18:50:43.378Z,100887.54
2022-11-29T18:52:47.750Z,100887.61
2022-11-29T18:54:52.143Z,100893.82
2022-11-29T18:56:56.521Z,100894.16
2022-11-29T18:59:00.896Z,100897.3
2022-11-29T19:01:05.414Z,100897.5
2022-11-29T19:03:09.846Z,100900.81
2022-11-29T19:05:14.235Z,100901.16
2022-11-29T19:07:18.788Z,100905.01
2022-11-29T19:09:23.345Z,100902.52
2022-11-29T19:11:27.782Z,100904.26
2022-11-29T19:13:32.187Z,100904.46
2022-11-29T19:15:36.652Z,100905.77
2022-11-29T19:17:44.290Z,100905.49
2022-11-29T19:19:49.096Z,100910.06
2022-11-29T19:21:53.468Z,100911.84
2022-11-29T19:23:57.830Z,100915.42
2022-11-29T19:26:02.235Z,100915.76
2022-11-29T19:28:14.335Z,100915.42
2022-11-29T19:30:18.907Z,100918.19
2022-11-29T19:32:23.281Z,100919.62
2022-11-29T19:34:27.689Z,100919.48
2022-11-29T19:36:32.073Z,100927.43
2022-11-29T19:38:36.433Z,100927.94
2022-11-29T19:40:40.821Z,100926.65
2022-11-29T19:42:45.239Z,100927.91
2022-11-29T19:45:18.103Z,100924.98
2022-11-29T19:47:22.852Z,100928.77
2022-11-29T19:49:27.236Z,100924.94
2022-11-29T19:51:31.584Z,100925.45
2022-11-29T19:53:35.953Z,100929.95
2022-11-29T19:55:44.826Z,100937.5
2022-11-29T19:57:49.236Z,100932.41
2022-11-29T19:59:53.600Z,100934.73
2022-11-29T20:01:58.128Z,100939.64
2022-11-29T20:04:02.631Z,100941.05
2022-11-29T20:06:07.166Z,100938.31
2022-11-29T20:08:11.538Z,100935.66
2022-11-29T20:10:21.761Z,100938.08
2022-11-29T20:12:26.166Z,100935.63
2022-11-29T20:14:30.591Z,100939.78
2022-11-29T20:16:34.956Z,100940.8
2022-11-29T20:18:39.344Z,100939.23
2022-11-29T20:20:43.755Z,100940.7
2022-11-29T20:22:48.198Z,100945.19
2022-11-29T20:24:52.585Z,100947.2
2022-11-29T20:26:56.958Z,100949.55
2022-11-29T20:29:01.378Z,100949.52
2022-11-29T20:31:06.003Z,100950.05
2022-11-29T20:33:10.566Z,100949.95
2022-11-29T20:35:14.944Z,100948.73
2022-11-29T20:37:19.343Z,100947.81
2022-11-29T20:39:23.704Z,100953.85
2022-11-29T20:41:28.080Z,100959.14
2022-11-29T20:43:32.476Z,100959.45
2022-11-29T20:45:36.861Z,100959.18
2022-11-29T20:47:41.275Z,100963.25
2022-11-29T20:49:46.357Z,100968.02
2022-11-29T20:51:51.388Z,100966.03
2022-11-29T20:53:55.785Z,100964.88
2022-11-29T20:56:00.176Z,100970.92
2022-11-29T20:58:04.684Z,100975.72
2022-11-29T21:00:09.101Z,100965.01
2022-11-29T21:02:13.513Z,100967.42
2022-11-29T21:04:24.127Z,100966.26
2022-11-29T21:06:28.496Z,100967.36
2022-11-29T21:08:32.950Z,100965.69
2022-11-29T21:10:37.378Z,100972.61
2022-11-29T21:12:41.735Z,100973.73
2022-11-29T21:14:46.949Z,100976.06
2022-11-29T21:16:51.832Z,100976.2
2022-11-29T21:18:56.202Z,100978.88
2022-11-29T21:21:00.596Z,100973.3
2022-11-29T21:23:05.008Z,100978.59
2022-11-29T21:25:09.420Z,100975.3
2022-11-29T21:27:13.780Z,100979.12
2022-11-29T21:29:18.162Z,100976.67
2022-11-29T21:31:22.684Z,100980.42
2022-11-29T21:33:27.111Z,100982.68
2022-11-29T21:35:31.501Z,100978.11
2022-11-29T21:37:35.859Z,100983.44
2022-11-29T21:39:40.205Z,100982.42
2022-11-29T21:41:44.597Z,100988.46
2022-11-29T21:44:08.254Z,100991.84
2022-11-29T21:46:12.884Z,100988.2
2022-11-29T21:48:17.359Z,100988.85
2022-11-29T21:50:21.754Z,100988.03
2022-11-29T21:52:26.158Z,100990.31
2022-11-29T21:54:30.509Z,100987.69
2022-11-29T21:56:34.865Z,100986.25
2022-11-29T21:58:39.224Z,100988.13
2022-11-29T22:00:43.595Z,100987.23
2022-11-29T22:02:48.043Z,100989.63
2022-11-29T22:04:52.513Z,100993.44
2022-11-29T22:06:56.914Z,100996.91
2022-11-29T22:09:01.355Z,100989.92
2022-11-29T22:11:05.714Z,100985.83
2022-11-29T22:13:10.049Z,100989.14
2022-11-29T22:15:14.395Z,100990.13
2022-11-29T22:17:23.809Z,100983.47
2022-11-29T22:19:28.182Z,100987.16
2022-11-29T22:21:32.567Z,100983.64
2022-11-29T22:23:36.942Z,100984.45
2022-11-29T22:25:41.328Z,100984.9
2022-11-29T22:27:45.709Z,100986.53
2022-11-29T22:29:50.071Z,100987.17
2022-11-29T22:31:54.503Z,100988.47
2022-11-29T22:33:58.863Z,100988.44
2022-11-29T22:36:03.208Z,100987.28
2022-11-29T22:38:07.609Z,100986.39
2022-11-29T22:40:11.946Z,100982.84
2022-11-29T22:42:16.333Z,100985.16
2022-11-29T22:44:20.692Z,100986.11
2022-11-29T22:46:25.181Z,100988.88
2022-11-29T22:48:32.036Z,100990.65
2022-11-29T22:50:42.131Z,100990.81
2022-11-29T22:52:46.482Z,100991.47
2022-11-29T22:54:51.118Z,100992.48
2022-11-29T22:56:55.482Z,100993
2022-11-29T22:58:59.874Z,100991.4
2022-11-29T23:01:04.449Z,100993.14
2022-11-29T23:03:09.082Z,100994.02
2022-11-29T23:05:13.439Z,100990.14
2022-11-29T23:07:17.955Z,100994.44
2022-11-29T23:09:22.710Z,100991.13
2022-11-29T23:11:27.231Z,100989.63
2022-11-29T23:13:31.636Z,100986.87
2022-11-29T23:15:35.982Z,100987.52
2022-11-29T23:17:40.344Z,100990.55
2022-11-29T23:19:44.742Z,100992.84
2022-11-29T23:21:49.142Z,100989.09
2022-11-29T23:23:57.447Z,100985.13
2022-11-29T23:26:01.801Z,100987.52
2022-11-29T23:28:06.178Z,100992.16
2022-11-29T23:30:10.520Z,100991.27
2022-11-29T23:32:14.884Z,100989.19
2022-11-29T23:34:19.272Z,100989.46
2022-11-29T23:36:23.637Z,100991.95
2022-11-29T23:38:28.010Z,100991.05
2022-11-29T23:40:32.441Z,100989.14
2022-11-29T23:42:36.847Z,100991.32
2022-11-29T23:44:41.225Z,100991.42
2022-11-29T23:46:45.596Z,100992.38
2022-11-29T23:48:49.981Z,100989.38
2022-11-29T23:50:54.379Z,100990.92